createdAt,value
2018-07-28T01:28:02.714Z,9.57
2018-07-28T01:30:32.466Z,8.80
2018-07-28T01:33:01.726Z,11.00
2018-07-28T01:35:30.402Z,10.30
2018-07-28T01:37:58.994Z,10.40
2018-07-28T01:40:27.542Z,10.90
2018-07-28T01:42:56.082Z,10.73
2018-07-28T01:45:24.644Z,10.97
2018-07-28T01:47:53.205Z,12.10
2018-07-28T01:50:21.730Z,11.47
2018-07-28T01:52:50.271Z,11.13
2018-07-28T01:55:18.778Z,12.20
2018-07-28T01:57:47.349Z,12.10
2018-07-28T02:00:15.867Z,12.10
2018-07-28T02:02:44.402Z,12.30
2018-07-28T02:05:12.919Z,13.13
2018-07-28T02:07:41.494Z,12.73
2018-07-28T02:10:10.575Z,11.00
2018-07-28T02:12:39.526Z,10.97
2018-07-28T02:15:08.691Z,11.20
2018-07-28T02:17:37.262Z,11.40
2018-07-28T02:20:07.527Z,11.90
2018-07-28T02:22:36.114Z,11.60
2018-07-28T02:25:08.317Z,11.77
2018-07-28T02:27:36.894Z,12.00
2018-07-28T02:30:06.029Z,11.43
2018-07-28T02:32:35.062Z,11.43
2018-07-28T02:35:04.033Z,11.17
2018-07-28T02:37:32.939Z,12.13
2018-07-28T02:40:01.486Z,10.97
2018-07-28T02:42:30.047Z,11.47
2018-07-28T02:44:58.962Z,11.63
2018-07-28T02:47:27.479Z,11.80
2018-07-28T02:49:56.049Z,11.40
2018-07-28T02:52:24.638Z,11.67
2018-07-28T02:54:53.173Z,11.73
2018-07-28T02:57:21.689Z,11.77
2018-07-28T02:59:50.221Z,11.17
2018-07-28T03:02:18.804Z,11.50
2018-07-28T03:04:47.327Z,11.63
2018-07-28T03:07:15.870Z,11.33
2018-07-28T03:09:44.441Z,12.27
2018-07-28T03:12:12.965Z,11.47
2018-07-28T03:14:41.482Z,11.20
2018-07-28T03:17:10.066Z,10.97
2018-07-28T03:19:38.669Z,11.47
2018-07-28T03:22:07.599Z,11.40
2018-07-28T03:24:36.114Z,10.87
2018-07-28T03:27:05.031Z,10.50
2018-07-28T03:29:33.518Z,10.83
2018-07-28T03:32:02.209Z,11.20
2018-07-28T03:34:30.753Z,11.10
2018-07-28T03:36:59.313Z,10.57
2018-07-28T03:39:27.835Z,10.73
2018-07-28T03:41:56.469Z,11.00
2018-07-28T03:44:25.061Z,10.77
2018-07-28T03:46:53.615Z,10.70
2018-07-28T03:49:22.242Z,10.83
2018-07-28T03:51:50.669Z,10.37
2018-07-28T03:54:19.223Z,11.40
2018-07-28T03:56:47.717Z,11.20
2018-07-28T03:59:16.270Z,10.80
2018-07-28T04:01:44.822Z,11.63
2018-07-28T04:04:13.417Z,10.37
2018-07-28T04:06:41.940Z,11.77
2018-07-28T04:09:11.296Z,11.20
2018-07-28T04:11:39.883Z,10.53
2018-07-28T04:14:08.470Z,11.13
2018-07-28T04:16:36.967Z,11.07
2018-07-28T04:19:06.034Z,10.17
2018-07-28T04:21:34.505Z,10.30
2018-07-28T04:24:03.089Z,11.00
2018-07-28T04:26:31.610Z,12.17
2018-07-28T04:29:00.166Z,11.93
2018-07-28T04:31:28.709Z,12.20
2018-07-28T04:33:57.553Z,11.27
2018-07-28T04:36:26.148Z,11.90
2018-07-28T06:54:53.237Z,11.43
2018-07-28T06:57:21.720Z,11.03
2018-07-28T06:59:50.292Z,11.60
2018-07-28T07:02:18.836Z,11.23
2018-07-28T07:04:47.397Z,11.10
2018-07-28T07:07:16.274Z,11.43
2018-07-28T07:09:44.849Z,10.67
2018-07-28T07:12:13.342Z,11.37
2018-07-28T07:14:41.897Z,11.60
2018-07-28T07:17:10.451Z,11.23
2018-07-28T07:19:38.981Z,11.77
2018-07-28T07:22:07.537Z,12.90
2018-07-28T07:24:36.168Z,12.77
2018-07-28T07:27:04.662Z,13.23
2018-07-28T07:29:33.149Z,12.30
2018-07-28T07:32:01.670Z,12.20
2018-07-28T07:34:30.184Z,12.97
2018-07-28T07:36:58.699Z,12.93
2018-07-28T07:39:27.231Z,13.10
2018-07-28T07:41:55.806Z,13.23
2018-07-28T07:44:24.333Z,12.80
2018-07-28T07:46:52.868Z,12.23
2018-07-28T07:49:21.801Z,10.73
2018-07-28T07:51:50.353Z,11.13
2018-07-28T07:54:18.844Z,10.65
2018-07-28T07:56:47.369Z,9.50
2018-07-28T07:59:15.887Z,11.25
2018-07-28T08:01:44.391Z,10.20
2018-07-28T08:04:12.864Z,9.55
2018-07-28T08:06:41.384Z,8.95
2018-07-28T08:09:09.975Z,9.20
2018-07-28T08:11:38.489Z,9.65
2018-07-28T08:14:07.103Z,10.08
2018-07-28T08:16:35.602Z,10.20
2018-07-28T08:19:04.091Z,9.55
2018-07-28T08:21:32.641Z,10.00
2018-07-28T08:24:01.122Z,9.20
2018-07-28T08:26:29.626Z,9.25
2018-07-28T08:28:58.093Z,10.15
2018-07-28T08:31:26.605Z,9.43
2018-07-28T08:33:55.081Z,9.93
2018-07-28T08:36:23.591Z,8.75
2018-07-28T08:38:52.154Z,9.70
2018-07-28T08:41:20.650Z,8.68
2018-07-28T08:43:49.094Z,9.23
2018-07-28T08:46:17.615Z,9.30
2018-07-28T08:48:46.688Z,8.55
2018-07-28T08:51:16.078Z,9.18
2018-07-28T08:53:44.650Z,9.43
2018-07-28T08:56:13.126Z,9.33
2018-07-28T08:58:41.622Z,9.00
2018-07-28T09:01:10.138Z,9.60
2018-07-28T09:03:38.897Z,8.70
2018-07-28T09:06:07.413Z,8.40
2018-07-28T09:08:36.126Z,8.13
2018-07-28T09:11:04.683Z,7.62
2018-07-28T09:13:33.254Z,9.05
2018-07-28T09:16:01.851Z,8.18
2018-07-28T09:18:30.338Z,7.80
2018-07-28T09:20:59.096Z,8.30
2018-07-28T09:23:28.004Z,8.53
2018-07-28T09:25:57.348Z,8.88
2018-07-28T09:28:25.825Z,9.30
2018-07-28T09:30:54.303Z,8.63
2018-07-28T09:33:22.868Z,7.10
2018-07-28T09:35:51.351Z,8.15
2018-07-28T09:38:19.902Z,8.15
2018-07-28T09:40:48.346Z,7.45
2018-07-28T09:43:17.067Z,8.25
2018-07-28T09:45:45.689Z,7.65
2018-07-28T09:48:14.535Z,7.17
2018-07-28T09:50:43.209Z,6.70
2018-07-28T09:53:12.341Z,8.10
2018-07-28T09:55:41.001Z,7.10
2018-07-28T09:58:09.626Z,6.37
2018-07-28T10:00:43.449Z,6.75
2018-07-28T10:03:11.961Z,6.70
2018-07-28T10:05:40.447Z,6.90
2018-07-28T10:08:08.969Z,6.75
2018-07-28T10:10:37.462Z,7.15
2018-07-28T10:13:05.999Z,6.80
2018-07-28T10:15:34.466Z,7.08
2018-07-28T10:18:03.827Z,7.00
2018-07-28T10:20:32.322Z,5.70
2018-07-28T10:23:00.935Z,5.92
2018-07-28T10:25:29.351Z,6.33
2018-07-28T10:27:57.855Z,6.00
2018-07-28T10:30:26.391Z,6.40
2018-07-28T10:32:55.339Z,5.45
2018-07-28T10:35:23.870Z,6.30
2018-07-28T10:37:53.079Z,6.08
2018-07-28T10:40:21.621Z,6.10
2018-07-28T10:42:50.150Z,5.58
2018-07-28T10:45:18.672Z,5.85
2018-07-28T10:47:47.219Z,6.00
2018-07-28T10:50:15.711Z,6.58
2018-07-28T10:52:44.722Z,5.58
2018-07-28T10:55:13.283Z,5.95
2018-07-28T10:57:41.846Z,6.65
2018-07-28T11:00:10.731Z,5.87
2018-07-28T11:02:40.029Z,5.28
2018-07-28T11:05:08.990Z,5.65
2018-07-28T11:07:37.541Z,5.40
2018-07-28T11:10:07.474Z,5.35
2018-07-28T11:12:36.007Z,5.75
2018-07-28T11:15:05.470Z,5.83
2018-07-28T11:17:33.955Z,5.83
2018-07-28T11:20:02.534Z,6.17
2018-07-28T11:22:31.063Z,5.70
2018-07-28T11:24:59.573Z,6.00
2018-07-28T11:27:28.077Z,5.70
2018-07-28T11:29:56.599Z,6.30
2018-07-28T11:32:36.313Z,6.17
2018-07-28T11:35:16.139Z,10.53
2018-07-28T11:38:05.770Z,5.85
2018-07-28T11:40:45.941Z,6.37
2018-07-28T11:43:26.142Z,5.17
2018-07-28T11:45:55.143Z,5.40
2018-07-28T11:48:23.585Z,5.10
2018-07-28T11:50:52.077Z,5.30
2018-07-28T11:53:20.585Z,5.92
2018-07-28T11:55:49.153Z,5.40
2018-07-28T11:58:17.751Z,5.50
2018-07-28T12:00:46.194Z,5.20
2018-07-28T12:03:14.666Z,5.67
2018-07-28T12:05:43.195Z,4.95
2018-07-28T12:08:11.691Z,5.10
2018-07-28T12:10:40.212Z,5.92
2018-07-28T12:13:08.765Z,5.72
2018-07-28T12:15:37.331Z,5.65
2018-07-28T12:18:06.024Z,4.80
2018-07-28T12:20:34.529Z,5.10
2018-07-28T12:23:03.019Z,4.95
2018-07-28T12:25:31.538Z,5.25
2018-07-28T12:28:00.065Z,4.70
2018-07-28T12:30:28.606Z,5.08
2018-07-28T12:32:57.105Z,4.90
2018-07-28T12:35:25.650Z,4.65
2018-07-28T12:37:54.162Z,5.08
2018-07-28T12:40:22.726Z,5.30
2018-07-28T12:42:51.218Z,5.28
2018-07-28T12:45:19.794Z,4.67
2018-07-28T12:47:48.327Z,5.50
2018-07-28T12:50:16.915Z,5.45
2018-07-28T12:54:09.898Z,5.10
2018-07-28T12:56:38.474Z,4.83
2018-07-28T12:59:07.058Z,5.35
2018-07-28T13:01:35.642Z,5.00
2018-07-28T13:04:04.171Z,5.20
2018-07-28T13:06:32.717Z,5.53
2018-07-28T13:09:01.253Z,6.00
2018-07-28T13:11:29.807Z,5.10
2018-07-28T13:13:58.313Z,5.10
2018-07-28T13:16:26.894Z,5.00
2018-07-28T13:18:55.385Z,5.40
2018-07-28T13:21:23.983Z,5.70
2018-07-28T13:23:52.479Z,5.17
2018-07-28T13:26:20.993Z,5.22
2018-07-28T13:28:49.478Z,5.72
2018-07-28T13:31:17.986Z,5.28
2018-07-28T13:33:46.468Z,5.80
2018-07-28T13:36:14.971Z,6.00
2018-07-28T13:38:43.438Z,4.95
2018-07-28T13:41:11.970Z,5.80
2018-07-28T13:43:40.450Z,5.50
2018-07-28T13:46:08.999Z,5.25
2018-07-28T15:46:35.628Z,5.20
2018-07-28T15:49:04.535Z,5.55
2018-07-28T15:51:32.974Z,4.55
2018-07-28T15:54:01.459Z,5.00
2018-07-28T15:56:29.942Z,5.35
2018-07-28T15:58:58.430Z,5.35
2018-07-28T16:01:26.889Z,5.62
2018-07-28T16:03:55.378Z,5.25
2018-07-28T16:06:23.853Z,5.35
2018-07-28T16:08:52.406Z,4.85
2018-07-28T16:11:20.884Z,4.78
2018-07-28T16:13:49.386Z,5.67
2018-07-28T16:16:17.879Z,5.50
2018-07-28T16:18:46.408Z,5.45
2018-07-28T16:21:14.870Z,6.12
2018-07-28T16:23:43.385Z,5.20
2018-07-28T16:26:11.845Z,6.00
2018-07-28T16:28:40.397Z,5.87
2018-07-28T16:31:08.929Z,5.17
2018-07-28T16:33:37.423Z,5.10
2018-07-28T16:36:05.910Z,5.60
2018-07-28T16:38:34.422Z,5.53
2018-07-28T16:41:02.952Z,5.80
2018-07-28T16:43:31.449Z,6.05
2018-07-28T16:45:59.942Z,6.40
2018-07-28T16:48:28.413Z,6.92
2018-07-28T16:50:56.873Z,5.58
2018-07-28T16:53:25.374Z,6.05
2018-07-28T16:55:53.826Z,6.92
2018-07-28T16:58:22.365Z,6.30
2018-07-28T17:00:50.870Z,5.85
2018-07-28T17:03:19.382Z,6.42
2018-07-28T17:05:47.995Z,6.15
2018-07-28T17:08:16.480Z,6.40
2018-07-28T17:10:44.955Z,5.80
2018-07-28T17:13:13.443Z,5.30
2018-07-28T17:15:41.901Z,5.62
2018-07-28T17:18:10.393Z,7.37
2018-07-28T17:20:38.854Z,5.95
2018-07-28T17:23:07.374Z,5.25
2018-07-28T17:25:35.811Z,5.20
2018-07-28T17:28:04.311Z,5.22
2018-07-28T17:30:32.772Z,5.22
2018-07-28T17:33:01.246Z,5.17
2018-07-28T17:35:30.078Z,5.60
2018-07-28T17:37:58.542Z,5.50
2018-07-28T17:40:27.026Z,6.03
2018-07-28T17:42:55.507Z,6.50
2018-07-28T17:45:24.007Z,7.33
2018-07-28T17:47:52.466Z,7.80
2018-07-28T17:50:20.989Z,6.50
2018-07-28T17:52:49.477Z,7.97
2018-07-28T17:55:17.981Z,8.33
2018-07-28T17:57:46.457Z,11.90
2018-07-28T18:00:15.039Z,15.13
2018-07-28T18:02:43.504Z,15.20
2018-07-28T18:05:12.025Z,10.20
2018-07-28T18:07:40.731Z,9.73
2018-07-28T18:10:09.174Z,10.10
2018-07-28T18:12:37.637Z,8.20
2018-07-28T18:15:06.476Z,7.20
2018-07-28T18:17:34.942Z,6.97
2018-07-28T18:20:03.524Z,6.50
2018-07-28T18:22:32.022Z,6.63
2018-07-28T18:25:00.522Z,7.43
2018-07-28T18:27:28.984Z,7.10
2018-07-28T18:29:57.480Z,6.17
2018-07-28T18:32:26.030Z,6.60
2018-07-28T18:34:54.553Z,6.37
2018-07-28T18:37:23.019Z,5.93
2018-07-28T18:39:51.517Z,6.43
2018-07-28T18:42:19.990Z,10.00
2018-07-28T18:44:48.509Z,7.30
2018-07-28T18:47:16.995Z,9.37
2018-07-28T18:49:45.489Z,14.10
2018-07-28T18:52:13.958Z,13.17
2018-07-28T18:54:42.458Z,10.83
2018-07-28T18:57:10.949Z,9.53
2018-07-28T18:59:39.450Z,6.70
2018-07-28T19:02:07.985Z,7.93
2018-07-28T19:04:36.508Z,8.80
2018-07-28T19:07:05.004Z,10.50
2018-07-28T19:09:38.757Z,9.93
2018-07-28T19:12:07.625Z,8.73
2018-07-28T19:14:38.381Z,7.93
2018-07-28T19:17:07.223Z,6.77
2018-07-28T19:19:35.717Z,6.50
2018-07-28T19:22:08.373Z,7.83
2018-07-28T19:24:36.900Z,7.40
2018-07-28T19:27:05.399Z,8.20
2018-07-28T19:29:42.026Z,7.13
2018-07-28T19:32:10.743Z,7.30
2018-07-28T19:34:39.410Z,7.97
2018-07-28T19:37:13.080Z,7.40
2018-07-28T19:39:41.580Z,7.17
2018-07-28T19:42:15.410Z,7.07
2018-07-28T19:44:43.910Z,7.00
2018-07-28T19:47:12.378Z,7.63
2018-07-28T19:49:40.827Z,6.93
2018-07-28T19:52:09.298Z,6.80
2018-07-28T19:54:37.758Z,7.60
2018-07-28T19:57:06.502Z,7.10
2018-07-28T19:59:34.991Z,7.37
2018-07-28T20:02:03.617Z,8.07
2018-07-28T20:04:32.065Z,10.27
2018-07-28T20:07:00.587Z,7.60
2018-07-28T20:09:29.098Z,7.10
2018-07-28T20:11:57.577Z,7.10
2018-07-28T20:14:26.070Z,7.77
2018-07-28T20:16:54.873Z,7.77
2018-07-28T20:19:23.470Z,6.73
2018-07-28T20:21:51.954Z,7.63
2018-07-28T20:24:20.398Z,7.77
2018-07-28T20:26:48.905Z,7.20
2018-07-28T20:29:17.353Z,7.57
2018-07-28T20:31:45.822Z,7.43
2018-07-28T20:34:15.161Z,8.07
2018-07-28T20:36:43.654Z,7.33
2018-07-28T20:39:12.862Z,7.70
2018-07-28T20:41:41.337Z,8.30
2018-07-28T20:44:09.802Z,7.80
2018-07-28T20:46:38.327Z,7.90
2018-07-28T20:49:06.841Z,8.60
2018-07-28T20:51:35.370Z,8.63
2018-07-28T20:54:03.871Z,8.43
2018-07-28T20:56:32.363Z,7.67
2018-07-28T20:59:00.826Z,7.30
2018-07-28T21:01:29.327Z,7.50
2018-07-28T21:03:57.809Z,7.67
2018-07-28T21:06:26.298Z,9.27
2018-07-28T21:08:54.773Z,8.17
2018-07-28T21:11:23.277Z,9.30
2018-07-28T21:13:51.738Z,7.70
2018-07-28T21:16:20.248Z,9.10
2018-07-28T21:18:48.752Z,8.37
2018-07-28T21:21:17.282Z,10.03
2018-07-28T21:23:45.745Z,9.37
2018-07-28T21:26:14.207Z,9.43
2018-07-28T21:28:42.713Z,9.00
2018-07-28T21:31:11.227Z,9.83
2018-07-28T21:33:39.790Z,8.73
2018-07-28T21:36:08.289Z,8.00
2018-07-28T21:38:36.806Z,10.40
2018-07-28T21:41:05.293Z,8.47
2018-07-28T21:43:33.818Z,9.00
2018-07-28T21:46:02.314Z,10.63
2018-07-28T21:48:30.916Z,8.20
2018-07-28T21:50:59.423Z,10.03
2018-07-28T21:53:27.946Z,8.47
2018-07-28T21:55:56.553Z,8.63
2018-07-28T21:58:25.074Z,8.10
2018-07-28T22:00:58.245Z,8.40
2018-07-28T22:03:27.493Z,8.37
2018-07-28T22:05:55.988Z,8.40
2018-07-28T22:08:24.541Z,9.00
2018-07-28T22:10:53.038Z,9.87
2018-07-28T22:13:21.596Z,9.20
2018-07-28T22:15:50.210Z,14.47
2018-07-28T22:18:18.998Z,10.57
2018-07-28T22:20:47.949Z,9.37
2018-07-28T22:23:16.494Z,8.23
2018-07-28T22:25:45.000Z,9.10
2018-07-28T22:28:13.553Z,8.73
2018-07-28T22:30:42.142Z,8.63
2018-07-28T22:33:10.734Z,9.63
2018-07-28T22:35:39.234Z,9.37
2018-07-28T22:38:07.770Z,7.90
2018-07-28T22:40:36.389Z,8.13
2018-07-28T22:43:04.954Z,8.07
2018-07-28T22:45:33.440Z,9.07
2018-07-28T22:48:01.986Z,8.80
2018-07-28T22:50:30.526Z,8.20
2018-07-28T22:52:59.032Z,7.97
2018-07-28T22:55:27.509Z,8.27
2018-07-28T22:57:56.036Z,14.50
2018-07-28T23:00:24.550Z,11.30
2018-07-28T23:02:53.110Z,9.63
2018-07-28T23:05:21.638Z,8.70
2018-07-28T23:07:50.263Z,8.10
2018-07-28T23:10:18.763Z,8.60
2018-07-28T23:12:47.327Z,7.70
2018-07-28T23:15:15.865Z,7.87
2018-07-28T23:17:44.771Z,8.10
2018-07-28T23:20:13.305Z,8.63
2018-07-28T23:22:41.907Z,7.60
2018-07-28T23:25:10.549Z,8.73
2018-07-28T23:27:39.159Z,8.10
2018-07-28T23:30:09.977Z,8.23
2018-07-28T23:32:38.961Z,8.80
2018-07-28T23:35:07.823Z,8.63
2018-07-28T23:37:36.350Z,8.23
2018-07-28T23:40:05.057Z,8.60
2018-07-28T23:42:33.675Z,8.40
2018-07-28T23:45:02.295Z,8.80
2018-07-28T23:47:30.782Z,8.63
2018-07-28T23:49:59.380Z,8.63
2018-07-28T23:52:27.884Z,8.67
2018-07-28T23:54:56.673Z,8.63
2018-07-28T23:57:25.230Z,9.00
2018-07-28T23:59:53.778Z,9.47
